Terminal Aerodrome Forecast
Issued by NWS Greer, SC

Home | Current Version | Previous Version | Text Only | Print | Product List | Glossary On
Versions: 1 2 3 4 5 6 7 8 9 10 11 12 13 14 15 16 17 18 19 20
000
FTUS42 KGSP 242328
TAFAVL
TAF
KAVL 242328Z 2500/2524 20004KT P6SM FEW060 SCT250
     FM250700 00000KT 5SM BR SCT008
      TEMPO 2509/2513 1SM BR OVC003
     FM251400 33003KT P6SM SCT030
     FM251600 26004KT P6SM SCT050
     FM252000 22005KT P6SM VCTS BKN050CB=

USA.gov is the U.S. government's official web portal to all federal, state and local government web resources and services.